• Join FlightAware (Why Join?)
  • Login
  • US Flag 
11:32AM EDT


 

Airport Tracker/Info


-or-


 

Live Flight TrackerFlight Track Log ✈ UAE787 ✈ 02-May-2013 ✈ DGAA / ACC - DIAP / ABJ

Flight Track Log - Related Links

Times and Time Zones

All times are in EDT time to prevent confusion due to time zone crossing. See the UAE787 flight status page for this flight to view local times or setup timezone preferences in your user account.

Time Position Orientation Groundspeed Altitude Reporting Facility
EDT Latitude Longitude Course Direction KTS MPH feet Rate Location/Type
09:24AM 5.5549 -0.8864 266° West  Level FlightAware Approximate
09:25AM 5.5510 -0.9417 266° West  Level FlightAware Approximate
09:26AM 5.5471 -0.9971 266° West  Level FlightAware Approximate
09:27AM 5.5432 -1.0524 266° West  Level FlightAware Approximate
09:28AM 5.5393 -1.1078 266° West  Level FlightAware Approximate
09:29AM 5.5353 -1.1631 266° West  Level FlightAware Approximate
09:30AM 5.5314 -1.2185 266° West  Level FlightAware Approximate
09:31AM 5.5275 -1.2738 266° West  Level FlightAware Approximate
09:32AM 5.5235 -1.3292 266° West  Level FlightAware Approximate
09:33AM 5.5196 -1.3845 266° West  Level FlightAware Approximate
09:34AM 5.5156 -1.4399 266° West  Level FlightAware Approximate
09:35AM 5.5117 -1.4952 266° West  Level FlightAware Approximate
09:36AM 5.5077 -1.5505 266° West  Level FlightAware Approximate
09:37AM 5.5037 -1.6059 266° West  Level FlightAware Approximate
09:38AM 5.4998 -1.6612 266° West  Level FlightAware Approximate
09:39AM 5.4958 -1.7166 266° West  Level FlightAware Approximate
09:40AM 5.4918 -1.7719 266° West  Level FlightAware Approximate
09:41AM 5.4878 -1.8273 266° West  Level FlightAware Approximate
09:42AM 5.4838 -1.8826 266° West  Level FlightAware Approximate
09:43AM 5.4798 -1.9379 266° West  Level FlightAware Approximate
09:44AM 5.4758 -1.9933 266° West  Level FlightAware Approximate
09:45AM 5.4718 -2.0486 266° West  Level FlightAware Approximate
09:46AM 5.4678 -2.1039 266° West  Level FlightAware Approximate
09:47AM 5.4638 -2.1593 266° West  Level FlightAware Approximate
09:48AM 5.4598 -2.2146 266° West  Level FlightAware Approximate
09:49AM 5.4558 -2.2699 266° West  Level FlightAware Approximate
09:50AM 5.4517 -2.3253 266° West  Level FlightAware Approximate
09:51AM 5.4477 -2.3806 266° West  Level FlightAware Approximate
09:52AM 5.4436 -2.4359 266° West  Level FlightAware Approximate
09:53AM 5.4396 -2.4913 266° West  Level FlightAware Approximate
09:54AM 5.4356 -2.5466 266° West  Level FlightAware Approximate
09:55AM 5.4315 -2.6019 266° West  Level FlightAware Approximate
09:56AM 5.4274 -2.6572 266° West  Level FlightAware Approximate
09:57AM 5.4234 -2.7126 266° West  Level FlightAware Approximate
09:58AM 5.4193 -2.7679 266° West  Level FlightAware Approximate
09:59AM 5.4152 -2.8232 266° West  Level FlightAware Approximate
10:00AM 5.4111 -2.8785 266° West  Level FlightAware Approximate
10:01AM 5.4083 -2.9167 265° West  Level FlightAware Approximate
10:02AM 5.4004 -2.9716 265° West  Level Estimated
10:03AM 5.4083 -2.9167 265° West  Level FlightAware Approximate
10:04AM 5.4004 -2.9716 265° West  Level Estimated
10:05AM 5.4083 -2.9167 265° West  Level FlightAware Approximate
10:06AM 5.4004 -2.9716 265° West  Level Estimated
10:07AM 5.4083 -2.9167 265° West  Level FlightAware Approximate
10:08AM 5.4004 -2.9716 265° West  Level Estimated
10:09AM 5.4083 -2.9167 265° West  Level FlightAware Approximate
10:10AM 5.4004 -2.9716 265° West  Level Estimated
10:11AM 5.4083 -2.9167 265° West  Level FlightAware Approximate
10:12AM 5.4004 -2.9716 265° West  Level Estimated
10:13AM 5.4083 -2.9167 265° West  Level FlightAware Approximate
10:14AM 5.4004 -2.9716 265° West  Level Estimated
10:15AM 5.4083 -2.9167 265° West  Level FlightAware Approximate
10:16AM 5.4004 -2.9716 265° West  Level Estimated
10:17AM 5.4083 -2.9167 265° West  Level FlightAware Approximate